Time;durP1;ratioP1;P1;durP2;ratioP2;P2;SDS_P1;SDS_P2;PMS_P1;PMS_P2;Temp;Humidity;BMP_temperature;BMP_pressure;BME280_temperature;BME280_humidity;BME280_pressure;Samples;Min_cycle;Max_cycle;Signal;HPM_P1;HPM_P2
2021/10/26 00:02:31;;;;;;;;;116.25;101.50;;;;;1.86;60.26;103125.81;4916526;29;8836;-69
2021/10/26 00:05:27;;;;;;;;;118.75;94.00;;;;;1.70;60.35;103123.56;4916462;29;8864;-69
2021/10/26 00:08:22;;;;;;;;;103.50;82.75;;;;;1.71;60.20;103125.22;4917042;29;8844;-69
2021/10/26 00:11:18;;;;;;;;;110.00;88.25;;;;;1.76;60.52;103119.94;4916511;29;9665;-70
2021/10/26 00:14:13;;;;;;;;;104.50;80.75;;;;;1.49;61.89;103119.16;4918966;29;8836;-70
2021/10/26 00:17:09;;;;;;;;;97.25;75.00;;;;;1.64;61.44;103125.22;4922548;29;8853;-70
2021/10/26 00:20:06;;;;;;;;;105.00;85.25;;;;;1.75;60.81;103121.84;4934926;29;8925;-69
2021/10/26 00:23:01;;;;;;;;;105.25;86.75;;;;;1.71;61.17;103117.88;4935055;29;9561;-70
2021/10/26 00:25:58;;;;;;;;;117.75;107.75;;;;;1.71;61.63;103130.69;4933486;29;8867;-69
2021/10/26 00:28:54;;;;;;;;;112.00;89.25;;;;;1.63;61.36;103118.09;4923658;29;8838;-70
2021/10/26 00:31:50;;;;;;;;;119.00;99.75;;;;;1.82;61.13;103117.22;4934912;29;9704;-70
2021/10/26 00:34:45;;;;;;;;;113.25;99.25;;;;;1.79;61.26;103114.09;4934814;29;8847;-69
2021/10/26 00:37:45;;;;;;;;;112.50;88.00;;;;;1.74;60.71;103122.91;4935002;29;8834;-70
2021/10/26 00:40:43;;;;;;;;;109.50;90.50;;;;;1.79;60.65;103116.81;4934905;29;8868;-70
2021/10/26 00:43:38;;;;;;;;;114.50;102.50;;;;;1.57;61.18;103122.50;4934817;29;8850;-70
2021/10/26 00:46:36;;;;;;;;;113.50;98.25;;;;;1.66;61.22;103114.94;4934857;29;8838;-69
2021/10/26 00:49:31;;;;;;;;;103.00;81.75;;;;;1.70;60.55;103112.63;4933998;29;8838;-69
2021/10/26 00:52:27;;;;;;;;;107.50;90.50;;;;;1.60;60.43;103108.44;4933831;29;9719;-70
2021/10/26 00:55:23;;;;;;;;;110.25;85.25;;;;;1.50;61.50;103107.19;4934558;29;8842;-70
2021/10/26 00:58:19;;;;;;;;;104.50;86.75;;;;;1.52;60.81;103105.09;4934607;29;8831;-70
2021/10/26 01:01:15;;;;;;;;;103.50;76.75;;;;;1.51;60.91;103108.88;4934756;29;8847;-70
2021/10/26 01:04:11;;;;;;;;;100.75;77.50;;;;;1.56;61.19;103118.09;4934810;29;8850;-70
2021/10/26 01:07:07;;;;;;;;;104.25;80.75;;;;;1.86;60.26;103115.75;4934832;29;8965;-70
2021/10/26 01:10:04;;;;;;;;;99.75;79.50;;;;;1.55;60.78;103112.88;4934652;29;8905;-70
2021/10/26 01:13:02;;;;;;;;;108.00;83.50;;;;;1.45;61.29;103112.44;4934548;29;8877;-70
2021/10/26 01:15:57;;;;;;;;;103.75;81.50;;;;;1.48;61.22;103112.03;4922467;29;8857;-70
2021/10/26 01:18:53;;;;;;;;;108.75;90.00;;;;;1.51;61.23;103111.59;4938273;29;8842;-70
2021/10/26 01:21:48;;;;;;;;;112.25;93.00;;;;;1.49;60.76;103113.72;4938213;29;8876;-70
2021/10/26 01:24:45;;;;;;;;;111.25;89.00;;;;;1.44;61.23;103118.94;4938188;29;8834;-70
2021/10/26 01:27:46;;;;;;;;;112.00;94.75;;;;;1.54;60.70;103124.84;4938156;29;8960;-70
2021/10/26 01:30:42;;;;;;;;;106.25;88.00;;;;;1.48;60.78;103114.75;4925590;29;8869;-70
2021/10/26 01:33:39;;;;;;;;;105.00;79.25;;;;;1.45;61.33;103116.00;4938229;29;8854;-70
2021/10/26 01:36:34;;;;;;;;;98.75;77.00;;;;;1.47;60.68;103124.84;4938035;29;8977;-70
2021/10/26 01:39:31;;;;;;;;;96.75;74.25;;;;;1.41;61.55;103125.66;4925836;29;8964;-70
2021/10/26 01:42:26;;;;;;;;;107.00;87.50;;;;;1.32;61.45;103124.22;4925992;29;8929;-70
2021/10/26 01:45:22;;;;;;;;;99.00;74.50;;;;;1.06;61.92;103122.28;4938266;29;8917;-70
2021/10/26 01:48:18;;;;;;;;;98.25;76.25;;;;;1.25;61.44;103128.81;4937456;29;8957;-70
2021/10/26 01:51:14;;;;;;;;;102.75;82.00;;;;;1.15;61.28;103123.78;4937575;29;8854;-69
2021/10/26 01:54:09;;;;;;;;;118.00;95.00;;;;;1.15;61.51;103122.91;4937784;29;8826;-69
2021/10/26 01:57:06;;;;;;;;;107.25;84.25;;;;;0.97;62.03;103123.53;4937762;29;9585;-69
2021/10/26 02:00:08;;;;;;;;;109.75;89.50;;;;;0.99;62.64;103121.44;4937783;29;8838;-68
2021/10/26 02:03:05;;;;;;;;;99.75;81.75;;;;;1.01;61.86;103130.25;4937573;29;8937;-67
2021/10/26 02:06:04;;;;;;;;;105.50;88.75;;;;;1.13;62.29;103117.69;4937904;29;8956;-70
2021/10/26 02:09:00;;;;;;;;;113.25;96.75;;;;;1.15;61.85;103117.47;4937543;29;8838;-70
2021/10/26 02:11:56;;;;;;;;;106.00;90.00;;;;;1.03;62.22;103118.09;4924740;29;8893;-70
2021/10/26 02:14:51;;;;;;;;;115.25;107.00;;;;;1.05;61.85;103123.34;4937517;29;8862;-70
2021/10/26 02:17:47;;;;;;;;;114.50;98.50;;;;;1.30;61.34;103120.81;4937139;29;8830;-70
2021/10/26 02:20:43;;;;;;;;;120.00;109.25;;;;;1.19;61.48;103121.47;4937643;29;9593;-70
2021/10/26 02:23:38;;;;;;;;;133.25;122.25;;;;;1.26;60.99;103119.59;4937253;29;8863;-70
2021/10/26 02:26:34;;;;;;;;;115.75;94.50;;;;;1.36;61.15;103128.19;4937190;29;8850;-70
2021/10/26 02:29:30;;;;;;;;;111.75;101.25;;;;;1.19;60.72;103127.75;4936595;29;8933;-70
2021/10/26 02:32:25;;;;;;;;;96.50;72.75;;;;;1.21;61.11;103122.94;4937029;29;9646;-70
2021/10/26 02:35:21;;;;;;;;;104.00;84.00;;;;;1.13;61.38;103122.28;4937513;29;8834;-70
2021/10/26 02:38:17;;;;;;;;;108.75;92.00;;;;;1.11;60.94;103125.22;4935062;29;8974;-70
2021/10/26 02:41:14;;;;;;;;;114.25;93.25;;;;;1.21;60.84;103128.38;4924581;29;9601;-70
2021/10/26 02:44:10;;;;;;;;;107.25;86.75;;;;;1.33;60.35;103118.53;4936185;29;8862;-70
2021/10/26 02:47:05;;;;;;;;;95.25;74.50;;;;;1.22;61.02;103123.75;4936500;29;8835;-69
2021/10/26 02:50:01;;;;;;;;;99.75;79.50;;;;;1.25;60.74;103128.81;4936799;29;8866;-70
2021/10/26 02:52:57;;;;;;;;;111.25;92.25;;;;;1.32;60.48;103133.22;4936699;29;8873;-69
2021/10/26 02:55:53;;;;;;;;;116.00;102.25;;;;;1.20;60.59;103132.16;4936891;29;8858;-70
2021/10/26 02:58:48;;;;;;;;;115.25;100.75;;;;;1.11;60.68;103138.88;4936636;29;8855;-70
2021/10/26 03:01:45;;;;;;;;;107.75;92.75;;;;;1.04;61.22;103130.69;4936219;29;8851;-69
2021/10/26 03:04:40;;;;;;;;;113.50;101.75;;;;;1.23;60.49;103134.50;4936704;29;8870;-70
2021/10/26 03:07:43;;;;;;;;;115.25;110.50;;;;;1.08;61.48;103129.22;4936161;29;8953;-71
2021/10/26 03:10:39;;;;;;;;;140.00;119.25;;;;;1.21;60.92;103125.66;4936387;29;8961;-70
2021/10/26 03:13:34;;;;;;;;;119.00;115.00;;;;;1.11;60.62;103126.06;4936483;29;8921;-70
2021/10/26 03:16:30;;;;;;;;;113.50;92.25;;;;;1.04;61.11;103133.41;4936256;29;8839;-70
2021/10/26 03:19:26;;;;;;;;;101.75;77.00;;;;;1.06;60.93;103128.56;4935591;29;9675;-70
2021/10/26 03:22:22;;;;;;;;;99.00;75.00;;;;;1.12;60.23;103124.19;4923507;29;8858;-69
2021/10/26 03:25:17;;;;;;;;;95.00;72.75;;;;;1.03;60.89;103129.00;4936283;29;8869;-70
2021/10/26 03:28:13;;;;;;;;;92.25;71.25;;;;;0.97;60.78;103139.88;4936026;29;8838;-70
2021/10/26 03:31:08;;;;;;;;;88.25;68.25;;;;;1.03;60.73;103133.63;4936111;29;8888;-70
2021/10/26 03:34:04;;;;;;;;;85.75;66.00;;;;;1.09;60.31;103136.34;4923450;29;8850;-70
2021/10/26 03:37:02;;;;;;;;;99.75;77.50;;;;;1.06;60.15;103139.47;4935891;29;8861;-70
2021/10/26 03:39:57;;;;;;;;;103.25;78.00;;;;;1.02;61.10;103132.78;4935803;29;8835;-70
2021/10/26 03:42:53;;;;;;;;;47.00;38.75;;;;;1.01;60.35;103136.56;4935654;29;8926;-69
2021/10/26 03:45:49;;;;;;;;;108.75;86.50;;;;;1.04;60.52;103132.56;4934106;29;8819;-70
2021/10/26 03:48:44;;;;;;;;;98.75;79.00;;;;;0.88;61.33;103131.06;4934912;29;8855;-69
2021/10/26 03:51:40;;;;;;;;;103.50;75.75;;;;;1.10;60.40;103121.69;4933635;29;8851;-70
2021/10/26 03:54:36;;;;;;;;;106.50;78.75;;;;;0.94;60.56;103121.25;4920372;29;8830;-69
2021/10/26 03:57:32;;;;;;;;;107.25;89.00;;;;;0.96;60.65;103116.41;4935025;29;8984;-69
2021/10/26 04:00:28;;;;;;;;;102.50;82.00;;;;;0.70;61.65;103115.31;4918822;29;8842;-69
2021/10/26 04:03:24;;;;;;;;;101.00;79.00;;;;;0.83;61.50;103117.22;4933758;29;8845;-69
2021/10/26 04:06:23;;;;;;;;;109.75;87.50;;;;;0.94;60.74;103105.72;4933039;29;8843;-70
2021/10/26 04:09:25;;;;;;;;;104.25;85.25;;;;;0.86;60.91;103103.19;4922298;29;8945;-71
2021/10/26 04:12:24;;;;;;;;;93.00;74.75;;;;;0.84;60.54;103110.72;4933202;29;8831;-70
2021/10/26 04:15:20;;;;;;;;;99.75;76.50;;;;;0.81;60.55;103108.41;4930337;29;8839;-70
2021/10/26 04:18:15;;;;;;;;;103.50;83.50;;;;;0.88;60.10;103113.88;4935711;29;8870;-70
2021/10/26 04:21:12;;;;;;;;;92.50;73.50;;;;;0.79;60.35;103108.63;4934947;29;8872;-70
2021/10/26 04:24:08;;;;;;;;;90.25;69.75;;;;;0.81;60.45;103114.72;4934112;29;8934;-70
2021/10/26 04:27:03;;;;;;;;;92.75;73.00;;;;;0.90;60.34;103120.78;4933457;29;8838;-70
2021/10/26 04:29:59;;;;;;;;;91.25;71.00;;;;;0.88;60.37;103117.44;4934952;29;8865;-70
2021/10/26 04:32:55;;;;;;;;;104.00;76.25;;;;;0.88;60.31;103122.06;4930703;29;8885;-69
2021/10/26 04:35:50;;;;;;;;;98.50;77.50;;;;;0.92;59.95;103123.31;4935090;29;8830;-70
2021/10/26 04:38:46;;;;;;;;;92.25;72.50;;;;;0.98;59.74;103122.47;4916978;29;8837;-70
2021/10/26 04:41:41;;;;;;;;;100.00;77.50;;;;;0.97;60.13;103126.25;4916304;29;8845;-70
2021/10/26 04:44:37;;;;;;;;;49.75;33.00;;;;;0.93;59.74;103131.31;4930786;29;8949;-70
2021/10/26 04:47:33;;;;;;;;;91.50;72.75;;;;;1.06;59.36;103123.13;4934689;29;8847;-71
2021/10/26 04:50:32;;;;;;;;;85.75;66.00;;;;;1.06;59.83;103123.13;4933110;29;8830;-71
2021/10/26 04:53:28;;;;;;;;;109.75;81.25;;;;;1.22;59.62;103126.50;4934193;29;8926;-71
2021/10/26 04:56:23;;;;;;;;;112.25;89.50;;;;;1.19;59.56;103124.19;4934023;29;9608;-71
2021/10/26 04:59:19;;;;;;;;;98.00;72.25;;;;;1.39;58.80;103127.78;4934897;29;8831;-70
2021/10/26 05:02:15;;;;;;;;;95.75;75.75;;;;;1.54;58.68;103125.66;4935053;29;8831;-71
2021/10/26 05:05:10;;;;;;;;;67.75;53.25;;;;;1.58;58.79;103126.91;4921792;29;8901;-70
2021/10/26 05:08:06;;;;;;;;;106.00;76.50;;;;;1.48;58.99;103122.94;4928803;29;8977;-70
2021/10/26 05:11:01;;;;;;;;;104.00;77.75;;;;;1.50;58.89;103126.28;4934945;29;8858;-70
2021/10/26 05:13:57;;;;;;;;;91.00;73.25;;;;;1.62;58.01;103127.34;4933859;29;8838;-70
2021/10/26 05:16:55;;;;;;;;;84.00;68.00;;;;;1.70;57.64;103139.94;4934495;29;8866;-70
2021/10/26 05:19:52;;;;;;;;;88.25;67.50;;;;;1.85;57.39;103133.19;4934199;29;8993;-71
2021/10/26 05:22:51;;;;;;;;;100.75;75.25;;;;;1.94;57.14;103141.97;4916922;29;9569;-70
2021/10/26 05:25:51;;;;;;;;;92.75;70.75;;;;;2.03;56.27;103146.16;4935049;29;8861;-70
2021/10/26 05:28:47;;;;;;;;;96.75;77.00;;;;;2.06;56.94;103144.88;4915164;29;8857;-70
2021/10/26 05:31:43;;;;;;;;;90.50;71.00;;;;;2.20;56.04;103146.50;4929741;29;9576;-69
2021/10/26 05:34:39;;;;;;;;;90.75;72.00;;;;;2.27;55.09;103155.53;4919617;29;8838;-70
2021/10/26 05:37:34;;;;;;;;;81.67;65.67;;;;;2.37;54.81;103146.88;4934223;29;8851;-69
2021/10/26 05:40:30;;;;;;;;;91.00;70.67;;;;;2.41;55.01;103161.78;4934360;29;9019;-69
2021/10/26 05:43:26;;;;;;;;;86.00;68.67;;;;;2.43;54.98;103156.94;4933695;29;8908;-72
2021/10/26 05:46:21;;;;;;;;;93.00;73.67;;;;;2.46;55.02;103162.81;4917596;29;8965;-69
2021/10/26 05:49:18;;;;;;;;;70.67;50.67;;;;;2.58;54.54;103156.66;4915626;29;8865;-69
2021/10/26 05:52:13;;;;;;;;;79.00;63.67;;;;;2.78;53.73;103162.88;4927204;29;8966;-69
2021/10/26 05:55:09;;;;;;;;;86.00;66.33;;;;;2.86;53.95;103170.81;4915111;29;8852;-70
2021/10/26 05:58:05;;;;;;;;;74.00;62.00;;;;;3.01;53.18;103170.53;4928514;29;8831;-70
2021/10/26 06:01:00;;;;;;;;;65.67;55.67;;;;;3.01;53.21;103165.91;4934233;29;8865;-70
2021/10/26 06:03:56;;;;;;;;;47.00;43.67;;;;;3.27;52.33;103174.97;4937717;29;8858;-70
2021/10/26 06:06:51;;;;;;;;;83.33;62.67;;;;;3.18;52.53;103163.47;4937510;29;8973;-70
2021/10/26 06:09:47;;;;;;;;;69.33;55.33;;;;;3.52;51.87;103164.03;4918631;29;8857;-68
2021/10/26 06:12:50;;;;;;;;;66.67;53.67;;;;;3.63;51.81;103166.06;4918959;29;8849;-69
2021/10/26 06:15:18;;;;;;;;;60.67;50.00;;;;;3.70;51.64;103160.53;4919169;29;8849;-68
2021/10/26 06:18:08;;;;;;;;;91.33;70.00;;;;;3.80;51.71;103152.63;4923845;29;8859;-69
2021/10/26 06:20:36;;;;;;;;;72.00;57.00;;;;;4.09;51.21;103146.44;4920724;29;8909;-69
2021/10/26 06:23:32;;;;;;;;;61.00;52.67;;;;;4.25;50.26;103152.38;4923882;29;8873;-68
2021/10/26 06:26:00;;;;;;;;;71.00;58.33;;;;;4.22;50.37;103148.19;4938252;29;8870;-69
2021/10/26 06:28:46;;;;;;;;;75.00;59.67;;;;;4.43;49.79;103153.19;4936831;29;8889;-70
2021/10/26 06:31:42;;;;;;;;;59.33;50.33;;;;;4.65;49.44;103156.28;4937245;29;8842;-70
2021/10/26 06:34:37;;;;;;;;;57.00;47.33;;;;;4.97;48.93;103154.16;4924315;29;8854;-69
2021/10/26 06:37:34;;;;;;;;;66.00;51.33;;;;;5.13;48.22;103165.53;4935266;29;8837;-69
2021/10/26 06:40:30;;;;;;;;;45.33;43.00;;;;;5.40;47.98;103160.47;4905136;29;8908;-69
2021/10/26 06:43:25;;;;;;;;;61.67;51.00;;;;;5.68;47.44;103159.81;4933909;29;8823;-68
2021/10/26 06:46:21;;;;;;;;;60.33;52.00;;;;;5.74;47.31;103154.16;4936575;29;11594;-70
2021/10/26 06:49:16;;;;;;;;;63.33;54.00;;;;;5.85;46.99;103150.59;4937089;29;11547;-69
2021/10/26 06:52:13;;;;;;;;;65.67;52.00;;;;;6.06;47.04;103145.63;4936258;29;11514;-69
2021/10/26 06:55:10;;;;;;;;;59.33;50.67;;;;;6.08;46.32;103157.19;4917810;29;11546;-68
2021/10/26 06:57:45;;;;;;;;;61.00;49.67;;;;;6.29;46.54;103155.72;4918500;29;11563;-69
2021/10/26 07:00:43;;;;;;;;;63.33;51.67;;;;;6.41;45.84;103142.78;4925346;29;11524;-69
2021/10/26 07:03:40;;;;;;;;;62.75;52.75;;;;;6.67;45.76;103147.72;4936092;29;12298;-68
2021/10/26 07:06:36;;;;;;;;;70.67;58.33;;;;;7.00;45.77;103137.06;4917535;29;12350;-68
2021/10/26 07:09:31;;;;;;;;;63.00;53.00;;;;;7.19;44.83;103141.25;4935721;29;11609;-68
2021/10/26 07:12:27;;;;;;;;;69.00;56.33;;;;;7.32;45.41;103132.66;4935384;29;11670;-68
2021/10/26 07:15:23;;;;;;;;;64.75;53.25;;;;;7.58;43.99;103135.81;4935546;29;12494;-68
2021/10/26 07:17:51;;;;;;;;;97.33;65.00;;;;;7.90;43.99;103136.91;4936499;29;11587;-69
2021/10/26 07:20:27;;;;;;;;;58.25;48.00;;;;;8.00;43.69;103136.19;4920468;29;8875;-68
2021/10/26 07:23:23;;;;;;;;;57.00;45.25;;;;;8.36;42.91;103140.31;4935622;29;11543;-68
2021/10/26 07:26:18;;;;;;;;;60.00;49.25;;;;;8.51;42.85;103134.97;4931996;29;11583;-70
2021/10/26 07:29:00;;;;;;;;;65.50;53.50;;;;;8.63;42.17;103126.56;4916761;29;12313;-70
2021/10/26 07:31:56;;;;;;;;;57.25;49.00;;;;;8.82;42.04;103124.28;4916916;29;12364;-69
2021/10/26 07:34:52;;;;;;;;;42.00;38.25;;;;;9.08;41.63;103125.38;4915732;29;11663;-69
2021/10/26 07:37:48;;;;;;;;;58.00;47.75;;;;;9.20;41.27;103131.53;4903933;29;11578;-69
2021/10/26 07:40:43;;;;;;;;;57.50;49.00;;;;;9.63;40.72;103133.28;4916785;29;11561;-69
2021/10/26 07:43:39;;;;;;;;;53.25;46.00;;;;;9.67;40.22;103128.91;4903653;29;11567;-68
2021/10/26 07:46:35;;;;;;;;;55.25;44.50;;;;;9.71;39.92;103129.19;4916208;29;11553;-70
2021/10/26 07:49:32;;;;;;;;;46.00;42.00;;;;;9.88;39.26;103123.50;4916310;29;11557;-69
2021/10/26 07:52:28;;;;;;;;;47.00;38.50;;;;;9.93;39.23;103129.06;4916161;29;12394;-69
2021/10/26 07:55:24;;;;;;;;;33.50;33.00;;;;;10.12;37.65;103123.91;4903665;29;11552;-69
2021/10/26 07:58:20;;;;;;;;;39.75;37.50;;;;;10.44;37.78;103118.28;4916137;29;11593;-69
2021/10/26 08:00:52;;;;;;;;;26.25;26.25;;;;;10.90;36.32;103121.19;4917262;29;11667;-69
2021/10/26 08:03:21;;;;;;;;;25.25;25.25;;;;;10.94;35.78;103111.22;4916839;29;11512;-69
2021/10/26 08:06:17;;;;;;;;;34.25;32.50;;;;;10.72;35.56;103114.22;4903216;29;11493;-68
2021/10/26 08:08:45;;;;;;;;;29.25;29.25;;;;;10.84;35.91;103101.78;4917320;29;11562;-69
2021/10/26 08:11:41;;;;;;;;;31.50;26.25;;;;;10.73;35.27;103110.34;4915839;29;11524;-68
2021/10/26 08:14:09;;;;;;;;;25.50;25.50;;;;;10.84;36.15;103103.72;4916717;29;11522;-69
2021/10/26 08:16:40;;;;;;;;;32.00;30.50;;;;;11.32;35.08;103105.16;4900706;29;11493;-69
2021/10/26 08:19:37;;;;;;;;;26.50;25.50;;;;;11.18;35.35;103108.75;4903398;29;11331;-69
2021/10/26 08:22:35;;;;;;;;;20.00;20.00;;;;;11.59;34.92;103106.81;4916600;29;11512;-69
2021/10/26 08:25:34;;;;;;;;;17.75;17.75;;;;;12.00;34.03;103107.56;4915254;29;11071;-69
2021/10/26 08:28:09;;;;;;;;;8.00;8.00;;;;;12.14;32.89;103107.81;4900825;29;11208;-69
2021/10/26 08:30:53;;;;;;;;;6.75;5.50;;;;;12.15;31.90;103106.69;4900649;29;10734;-70
2021/10/26 08:36:04;;;;;;;;;72.50;43.25;;;;;12.59;32.13;103098.44;4916598;29;10040;-69
2021/10/26 08:39:00;;;;;;;;;8.00;8.00;;;;;12.38;31.66;103097.72;4915729;29;11520;-70
2021/10/26 08:41:31;;;;;;;;;6.00;6.00;;;;;12.25;31.38;103099.13;4917074;29;10341;-70
2021/10/26 08:44:27;;;;;;;;;11.25;11.00;;;;;12.89;31.43;103094.66;4915815;29;10260;-70
2021/10/26 08:47:23;;;;;;;;;8.75;8.75;;;;;12.98;31.24;103097.63;4903480;29;11095;-69
2021/10/26 08:50:20;;;;;;;;;8.25;8.25;;;;;13.02;30.92;103099.53;4927329;29;10329;-69
2021/10/26 08:52:49;;;;;;;;;8.00;8.00;;;;;12.89;30.63;103102.16;4934573;29;10231;-70
2021/10/26 08:55:55;;;;;;;;;11.75;11.75;;;;;13.16;30.51;103091.38;4903914;29;10057;-69
2021/10/26 08:58:55;;;;;;;;;10.75;10.75;;;;;13.38;30.51;103090.94;4924818;29;10080;-69
2021/10/26 09:01:46;;;;;;;;;10.50;10.00;;;;;13.51;30.34;103086.66;4935801;29;9889;-69
2021/10/26 09:04:14;;;;;;;;;11.00;11.00;;;;;13.55;30.31;103093.28;4919342;29;10690;-69
2021/10/26 09:06:59;;;;;;;;;9.25;9.00;;;;;13.55;30.38;103091.31;4935303;29;9808;-70
2021/10/26 09:09:29;;;;;;;;;9.50;9.50;;;;;13.68;30.16;103086.22;4935564;29;9730;-69
2021/10/26 09:17:53;;;;;;;;;11.00;11.00;;;;;14.11;29.49;103085.16;4934602;29;10002;-68
2021/10/26 09:20:28;;;;;;;;;7.75;7.75;;;;;13.79;29.50;103076.63;4934776;29;9740;-71
2021/10/26 09:23:27;;;;;;;;;7.75;6.00;;;;;13.95;29.61;103077.28;4934238;29;9722;-69
2021/10/26 09:26:46;;;;;;;;;14.50;14.50;;;;;14.13;29.11;103071.78;4932742;29;9853;-70
2021/10/26 09:29:14;;;;;;;;;3.25;3.25;;;;;14.05;29.00;103064.09;4935688;29;9876;-69
2021/10/26 09:31:42;;;;;;;;;12.50;12.50;;;;;13.94;29.58;103070.06;4918613;29;9618;-70
2021/10/26 09:34:40;;;;;;;;;15.75;15.25;;;;;14.11;28.78;103071.25;4934079;29;10451;-69
2021/10/26 09:37:38;;;;;;;;;14.25;13.00;;;;;14.23;29.06;103062.47;4934768;29;10018;-69
2021/10/26 09:40:19;;;;;;;;;20.25;17.50;;;;;14.69;28.22;103057.09;4938094;29;9789;-69
2021/10/26 09:43:15;;;;;;;;;14.75;14.75;;;;;14.49;27.66;103053.78;4938717;29;9936;-69
2021/10/26 09:46:10;;;;;;;;;16.25;14.00;;;;;14.38;28.32;103048.34;4937107;29;10604;-69
2021/10/26 09:49:23;;;;;;;;;12.00;12.00;;;;;14.49;28.20;103048.22;4937445;29;9735;-71
2021/10/26 09:52:29;;;;;;;;;13.75;13.75;;;;;14.63;27.98;103055.53;4937564;29;9749;-70
2021/10/26 09:55:28;;;;;;;;;14.50;13.50;;;;;14.95;27.93;103038.06;4937702;29;9695;-70
2021/10/26 09:58:26;;;;;;;;;12.50;12.50;;;;;14.79;28.73;103044.97;4937344;29;10270;-70
2021/10/26 10:01:25;;;;;;;;;13.75;13.75;;;;;15.27;28.49;103047.53;4936177;29;9551;-71
2021/10/26 10:04:03;;;;;;;;;14.00;14.00;;;;;15.28;28.44;103046.41;4931529;29;9657;-70
2021/10/26 10:06:47;;;;;;;;;13.00;13.00;;;;;13.69;29.69;103046.16;4919245;29;9574;-70
2021/10/26 10:09:53;;;;;;;;;13.00;13.00;;;;;14.22;29.36;103027.41;4927848;29;9566;-68
2021/10/26 10:12:36;;;;;;;;;14.00;14.00;;;;;14.78;28.93;103026.59;4920562;29;9793;-70
2021/10/26 10:15:32;;;;;;;;;12.75;12.75;;;;;15.41;27.92;103028.88;4936664;29;9628;-68
2021/10/26 10:18:02;;;;;;;;;12.67;12.67;;;;;15.08;27.90;103019.69;4921228;29;9537;-68
2021/10/26 10:20:45;;;;;;;;;11.33;11.33;;;;;13.76;29.64;103018.81;4934995;29;9494;-68
2021/10/26 10:23:44;;;;;;;;;8.50;8.50;;;;;13.91;30.09;103021.41;4923198;29;9329;-68
2021/10/26 10:26:29;;;;;;;;;9.75;9.75;;;;;14.30;29.21;103010.03;4934965;29;9651;-68
2021/10/26 10:29:25;;;;;;;;;12.50;12.50;;;;;14.53;29.19;103008.34;4920884;29;9695;-68
2021/10/26 10:32:22;;;;;;;;;11.50;11.50;;;;;14.00;29.48;103014.06;4936067;29;9696;-68
2021/10/26 10:35:19;;;;;;;;;12.00;11.00;;;;;14.86;28.43;103000.84;4935443;29;9638;-68
2021/10/26 10:37:49;;;;;;;;;9.50;9.50;;;;;14.14;28.76;103000.25;4937379;29;9710;-68
2021/10/26 10:40:46;;;;;;;;;10.25;10.25;;;;;14.90;28.04;102996.31;4935547;29;9530;-68
2021/10/26 10:43:41;;;;;;;;;10.75;10.00;;;;;15.41;27.31;102997.34;4934168;29;9613;-69
2021/10/26 10:46:47;;;;;;;;;7.00;7.00;;;;;14.33;28.54;102986.31;4935512;29;9539;-69
2021/10/26 10:49:44;;;;;;;;;7.00;7.00;;;;;14.34;28.61;102988.84;4921553;29;9300;-68
2021/10/26 10:52:18;;;;;;;;;9.00;9.00;;;;;14.49;28.77;102984.16;4937340;29;9624;-69
2021/10/26 10:55:23;;;;;;;;;6.00;6.00;;;;;14.42;28.39;102984.53;4923502;29;9736;-70
2021/10/26 10:58:29;;;;;;;;;6.25;6.25;;;;;14.64;27.98;102983.94;4935953;29;9704;-69
2021/10/26 11:01:24;;;;;;;;;5.00;5.00;;;;;13.58;29.04;102979.53;4918377;29;9752;-68
2021/10/26 11:04:21;;;;;;;;;5.25;5.25;;;;;14.68;28.05;102977.47;4934406;29;9608;-68
2021/10/26 11:07:42;;;;;;;;;6.75;5.25;;;;;14.86;27.50;102964.63;4933787;29;9549;-68
2021/10/26 11:10:50;;;;;;;;;3.00;2.00;;;;;15.27;26.82;102966.69;4935805;29;9582;-68
2021/10/26 11:13:23;;;;;;;;;5.67;5.67;;;;;14.29;27.54;102963.84;4917858;29;9351;-68
2021/10/26 11:16:33;;;;;;;;;3.00;2.00;;;;;15.24;26.29;102959.75;4928833;29;9896;-71
2021/10/26 11:19:45;;;;;;;;;4.33;4.33;;;;;15.76;25.70;102951.22;4925998;29;9347;-70
2021/10/26 11:22:44;;;;;;;;;0.00;0.00;;;;;14.91;25.98;102953.41;4936533;29;9077;-72
2021/10/26 11:25:42;;;;;;;;;3.00;3.00;;;;;14.27;26.16;102948.59;4935008;29;8950;-71
2021/10/26 11:28:27;;;;;;;;;2.33;2.33;;;;;15.12;25.67;102942.72;4922041;29;9026;-71
2021/10/26 11:30:59;;;;;;;;;3.00;3.00;;;;;15.01;26.08;102944.03;4936800;29;9258;-69
2021/10/26 11:33:30;;;;;;;;;3.00;2.33;;;;;15.45;25.59;102939.84;4937109;29;9300;-70
2021/10/26 11:36:31;;;;;;;;;6.00;6.00;;;;;15.96;24.96;102930.44;4922456;29;9383;-71
2021/10/26 11:39:27;;;;;;;;;8.00;8.00;;;;;15.56;24.79;102949.63;4935741;29;9373;-70
2021/10/26 11:42:23;;;;;;;;;10.00;10.00;;;;;15.97;24.91;102932.06;4936105;29;9435;-71
2021/10/26 11:45:18;;;;;;;;;12.00;12.00;;;;;15.69;24.81;102934.91;4935323;29;9267;-70
2021/10/26 11:48:42;;;;;;;;;13.67;13.33;;;;;16.20;24.23;102928.19;4927904;29;9223;-72
2021/10/26 11:51:19;;;;;;;;;12.33;12.33;;;;;16.20;24.25;102919.00;4919232;29;9326;-71
2021/10/26 11:54:20;;;;;;;;;11.67;11.67;;;;;16.16;24.38;102918.78;4933850;29;9199;-70
2021/10/26 11:57:22;;;;;;;;;12.00;12.00;;;;;16.49;24.29;102908.22;4923314;29;9074;-70
2021/10/26 12:00:14;;;;;;;;;8.00;8.00;;;;;15.72;25.46;102902.75;4922773;29;9228;-69
2021/10/26 12:03:09;;;;;;;;;13.00;12.00;;;;;15.87;25.42;102901.59;4934555;29;9179;-70
2021/10/26 12:06:05;;;;;;;;;15.25;15.25;;;;;15.67;24.56;102906.50;4935242;29;9255;-69
2021/10/26 12:09:04;;;;;;;;;17.75;17.75;;;;;16.13;24.44;102905.47;4935220;29;9547;-70
2021/10/26 12:12:05;;;;;;;;;14.00;13.00;;;;;16.60;24.43;102900.41;4935148;29;9563;-70
2021/10/26 12:15:06;;;;;;;;;12.33;12.33;;;;;16.26;24.96;102898.19;4923630;29;9032;-71
2021/10/26 12:18:06;;;;;;;;;11.00;9.67;;;;;14.82;26.08;102898.69;4933417;29;9101;-72
2021/10/26 12:20:34;;;;;;;;;13.33;13.33;;;;;15.40;26.13;102895.31;4931177;29;9295;-72
2021/10/26 12:23:29;;;;;;;;;10.00;10.00;;;;;15.13;26.79;102899.75;4915422;29;9190;-70
2021/10/26 12:26:25;;;;;;;;;12.67;12.67;;;;;15.23;26.52;102902.34;4916798;29;9332;-70
2021/10/26 12:29:30;;;;;;;;;10.25;10.25;;;;;15.16;27.02;102889.94;4933740;29;9331;-70
2021/10/26 12:32:26;;;;;;;;;10.33;7.00;;;;;14.12;27.92;102894.81;4935062;29;9458;-70
2021/10/26 12:35:24;;;;;;;;;9.00;9.00;;;;;14.32;27.91;102895.59;4934859;29;9405;-70
2021/10/26 12:38:29;;;;;;;;;11.50;11.50;;;;;14.62;28.00;102894.28;4934839;29;9654;-70
2021/10/26 12:41:28;;;;;;;;;9.25;9.25;;;;;14.76;27.23;102892.38;4934732;29;9788;-70
2021/10/26 12:44:28;;;;;;;;;15.25;12.25;;;;;15.09;27.50;102890.34;4934676;29;9693;-70
2021/10/26 12:47:28;;;;;;;;;11.75;11.00;;;;;14.69;27.92;102883.59;4921550;29;9561;-70
2021/10/26 12:50:42;;;;;;;;;9.00;9.00;;;;;15.12;27.35;102883.34;4915737;29;9753;-70
2021/10/26 12:53:40;;;;;;;;;10.00;10.00;;;;;14.94;27.76;102871.13;4929765;29;9671;-70
2021/10/26 12:56:46;;;;;;;;;11.75;11.50;;;;;14.82;27.71;102865.25;4922031;29;9553;-70
2021/10/26 12:59:42;;;;;;;;;7.50;7.50;;;;;14.45;28.46;102867.00;4934802;29;9484;-70
2021/10/26 13:02:10;;;;;;;;;7.50;7.50;;;;;14.87;28.39;102873.50;4935447;29;9642;-70
2021/10/26 13:04:39;;;;;;;;;12.25;11.75;;;;;14.95;28.41;102870.84;4934266;29;9530;-71
2021/10/26 13:07:34;;;;;;;;;9.00;9.00;;;;;14.42;28.62;102873.19;4934399;29;9475;-70
2021/10/26 13:10:07;;;;;;;;;7.75;7.75;;;;;14.67;28.25;102871.94;4935363;29;9633;-70
2021/10/26 13:12:39;;;;;;;;;11.75;11.75;;;;;14.74;28.22;102859.25;4936767;29;10422;-70
2021/10/26 13:15:35;;;;;;;;;6.75;6.75;;;;;14.65;28.18;102863.88;4923944;29;10271;-70
2021/10/26 13:18:04;;;;;;;;;12.00;11.75;;;;;14.88;27.72;102861.25;4937986;29;9602;-71
2021/10/26 13:21:01;;;;;;;;;6.67;6.67;;;;;14.65;28.35;102851.94;4925770;29;9603;-71
2021/10/26 13:23:56;;;;;;;;;9.67;9.67;;;;;14.69;28.41;102855.72;4938450;29;9313;-71
2021/10/26 13:26:53;;;;;;;;;6.00;6.00;;;;;15.01;27.70;102863.19;4938172;29;10321;-71
2021/10/26 13:29:22;;;;;;;;;11.50;11.50;;;;;15.01;27.72;102852.06;4922620;29;9477;-72